Time;durP1;ratioP1;P1;durP2;ratioP2;P2;SDS_P1;SDS_P2;PMS_P1;PMS_P2;Temp;Humidity;BMP_temperature;BMP_pressure;BME280_temperature;BME280_humidity;BME280_pressure;Samples;Min_cycle;Max_cycle;Signal;HPM_P1;HPM_P2
2023/01/03 00:03:17;;;;;;;2.77;1.73;;;;;;;10.32;100.00;101058.13;5204799;56;1141266;-70
2023/01/03 00:08:23;;;;;;;0.90;0.70;;;;;;;10.23;100.00;101040.61;5231858;56;1140972;-69
2023/01/03 00:13:30;;;;;;;0.60;0.60;;;;;;;10.23;100.00;101040.61;5231642;56;1140843;-71
2023/01/03 00:18:36;;;;;;;2.33;0.90;;;;;;;10.21;100.00;101065.48;5252093;56;1141110;-72
2023/01/03 00:23:42;;;;;;;2.60;0.70;;;;;;;10.18;100.00;101081.50;5195526;56;1140931;-69
2023/01/03 00:28:47;;;;;;;1.13;0.70;;;;;;;10.18;100.00;101082.39;5144450;56;1141122;-71
2023/01/03 00:33:54;;;;;;;0.63;0.63;;;;;;;10.16;100.00;101077.64;5144510;56;1141060;-71
2023/01/03 00:38:59;;;;;;;1.27;0.40;;;;;;;10.13;100.00;101084.45;5164195;57;1141553;-70
2023/01/03 00:44:06;;;;;;;0.33;0.30;;;;;;;10.08;100.00;101093.65;5144161;57;1140808;-70
2023/01/03 00:49:13;;;;;;;2.33;0.40;;;;;;;9.98;100.00;101112.36;5144301;57;1141083;-71
2023/01/03 00:54:18;;;;;;;1.10;0.40;;;;;;;9.88;100.00;101124.87;5164294;57;1138878;-70
2023/01/03 00:59:25;;;;;;;1.13;0.50;;;;;;;9.83;100.00;101127.42;5144406;57;1138776;-67
2023/01/03 01:04:32;;;;;;;2.30;0.67;;;;;;;9.81;100.00;101138.08;5193457;56;1138666;-71
2023/01/03 01:09:38;;;;;;;0.30;0.30;;;;;;;9.74;100.00;101148.69;5210141;56;1139040;-69
2023/01/03 01:14:45;;;;;;;0.33;0.33;;;;;;;9.73;100.00;101160.66;5190158;55;1138847;-69
2023/01/03 01:19:51;;;;;;;0.87;0.20;;;;;;;9.66;100.00;101165.95;5200850;56;1138867;-68
2023/01/03 01:24:56;;;;;;;0.30;0.30;;;;;;;9.64;100.00;101163.88;5303733;55;1139001;-71
2023/01/03 01:30:02;;;;;;;0.77;0.50;;;;;;;9.67;100.00;101182.17;5249830;55;1139135;-72
2023/01/03 01:35:08;;;;;;;0.53;0.53;;;;;;;9.67;100.00;101183.50;5165337;55;1138760;-71
2023/01/03 01:40:14;;;;;;;0.63;0.63;;;;;;;9.62;100.00;101186.45;5077082;57;1138710;-69
2023/01/03 01:45:20;;;;;;;0.63;0.40;;;;;;;9.55;100.00;101194.36;5066289;57;1138919;-70
2023/01/03 01:50:33;;;;;;;1.17;0.53;;;;;;;9.51;100.00;101199.45;4961424;57;1138981;-70
2023/01/03 01:55:49;;;;;;;0.40;0.40;;;;;;;9.44;100.00;101203.44;4962037;57;1138833;-70
2023/01/03 02:00:58;;;;;;;0.97;0.43;;;;;;;9.39;100.00;101200.22;5084833;57;1139064;-68
2023/01/03 02:06:07;;;;;;;0.77;0.60;;;;;;;9.36;100.00;101201.72;5094321;56;1138712;-70
2023/01/03 02:11:49;;;;;;;3.13;0.67;;;;;;;9.34;100.00;101197.85;5118949;56;1138621;-71
2023/01/03 02:17:19;;;;;;;1.07;0.67;;;;;;;9.37;100.00;101205.59;5128370;56;1138924;-71
2023/01/03 02:22:50;;;;;;;0.47;0.45;;;;;;;9.32;100.00;101206.84;5128799;56;1138670;-70
2023/01/03 02:28:02;;;;;;;0.85;0.60;;;;;;;9.26;100.00;101209.84;5141333;56;1138957;-68
2023/01/03 02:33:21;;;;;;;0.62;0.55;;;;;;;9.22;100.00;101209.64;5199664;55;1138967;-72
2023/01/03 02:38:51;;;;;;;3.80;0.60;;;;;;;9.12;100.00;101222.09;5059526;57;1139384;-68
2023/01/03 02:44:18;;;;;;;1.37;0.70;;;;;;;9.12;100.00;101227.83;5110201;57;1138795;-71
2023/01/03 02:49:40;;;;;;;1.27;0.90;;;;;;;9.09;100.00;101239.42;5114815;57;1138683;-71
2023/01/03 02:54:58;;;;;;;1.00;0.90;;;;;;;9.06;100.00;101240.06;5101740;56;1139031;-70
2023/01/03 03:00:08;;;;;;;1.50;0.70;;;;;;;9.03;100.00;101242.41;5050116;56;1139465;-67
2023/01/03 03:05:28;;;;;;;1.07;0.60;;;;;;;9.01;100.00;101242.97;5141612;55;1138860;-71
2023/01/03 03:32:38;;;;;;;1.57;0.90;;;;;;;8.91;100.00;101263.40;5075546;56;1138837;-66
2023/01/03 03:37:47;;;;;;;1.83;0.77;;;;;;;8.87;100.00;101270.63;5016684;57;1139605;-68
2023/01/03 03:54:14;;;;;;;4.27;1.23;;;;;;;8.80;100.00;101275.91;5047866;57;1138910;-65
2023/01/03 03:59:23;;;;;;;2.93;1.60;;;;;;;8.78;100.00;101283.91;5118633;57;1138815;-66
2023/01/03 04:04:36;;;;;;;3.83;1.67;;;;;;;8.74;100.00;101302.16;5133068;57;1139024;-68
2023/01/03 04:09:42;;;;;;;2.60;1.07;;;;;;;8.70;100.00;101312.52;5137401;56;1138835;-69
2023/01/03 04:14:48;;;;;;;3.17;1.20;;;;;;;8.70;100.00;101316.94;5124896;56;1138968;-68
2023/01/03 04:19:54;;;;;;;5.60;1.22;;;;;;;8.68;100.00;101316.17;5138526;57;1138932;-67
2023/01/03 04:25:00;;;;;;;2.92;1.30;;;;;;;8.63;100.00;101318.22;5131659;57;1138911;-69
2023/01/03 04:30:07;;;;;;;2.77;1.30;;;;;;;8.54;100.00;101318.75;5144751;56;1138728;-66
2023/01/03 04:35:14;;;;;;;2.10;1.00;;;;;;;8.47;100.00;101326.14;5090798;56;1138843;-66
2023/01/03 04:40:20;;;;;;;5.23;1.13;;;;;;;8.44;100.00;101334.20;5062069;56;1139029;-65
2023/01/03 04:45:26;;;;;;;3.30;1.17;;;;;;;8.44;100.00;101335.52;5045413;56;1138818;-69
2023/01/03 04:50:32;;;;;;;2.00;1.37;;;;;;;8.43;100.00;101335.99;5113528;56;1139009;-66
2023/01/03 04:55:50;;;;;;;3.23;1.60;;;;;;;8.44;100.00;101344.75;5060154;57;1138973;-66
2023/01/03 05:01:01;;;;;;;3.97;1.40;;;;;;;8.43;100.00;101347.00;5076349;56;1138839;-69
2023/01/03 05:06:11;;;;;;;2.83;1.30;;;;;;;8.42;100.00;101358.02;5031245;57;1138862;-66
2023/01/03 05:11:16;;;;;;;1.90;1.00;;;;;;;8.41;100.00;101364.22;5081318;55;1138986;-66
2023/01/03 05:16:22;;;;;;;2.98;1.37;;;;;;;8.38;100.00;101378.06;5174084;55;1138792;-67
2023/01/03 05:26:52;;;;;;;2.92;1.57;;;;;;;8.24;100.00;101393.28;5206106;55;1139238;-67
2023/01/03 05:31:58;;;;;;;5.67;1.57;;;;;;;8.04;100.00;101412.77;5082240;55;1138983;-67
2023/01/03 05:37:04;;;;;;;6.13;1.60;;;;;;;7.85;100.00;101417.75;5033540;56;1138959;-65
2023/01/03 05:42:14;;;;;;;1.80;1.50;;;;;;;7.74;100.00;101420.48;5076890;56;1138922;-67
2023/01/03 05:47:19;;;;;;;4.77;2.50;;;;;;;7.70;100.00;101432.09;5098287;56;1139044;-69
2023/01/03 05:52:25;;;;;;;9.87;4.30;;;;;;;7.67;100.00;101428.77;5055854;56;1138713;-65
2023/01/03 05:57:31;;;;;;;8.80;3.87;;;;;;;7.63;100.00;101433.36;4939423;59;1138873;-68
2023/01/03 06:02:36;;;;;;;9.70;3.43;;;;;;;7.63;100.00;101435.99;5005838;57;1139170;-65
2023/01/03 06:07:42;;;;;;;11.03;4.57;;;;;;;7.61;100.00;101451.02;5004697;56;1139121;-67
2023/01/03 06:12:48;;;;;;;14.20;5.50;;;;;;;7.58;100.00;101452.94;5015678;57;1140843;-68
2023/01/03 06:17:56;;;;;;;15.63;6.97;;;;;;;7.59;100.00;101461.23;5095658;56;1141002;-68
2023/01/03 06:23:02;;;;;;;14.15;4.85;;;;;;;7.59;100.00;101465.17;5093702;57;1141201;-69
2023/01/03 06:28:08;;;;;;;7.77;2.77;;;;;;;7.63;100.00;101478.58;5052411;56;1141147;-66
2023/01/03 06:33:13;;;;;;;7.22;3.55;;;;;;;7.56;100.00;101479.34;5058860;56;1138889;-64
2023/01/03 06:38:19;;;;;;;6.22;1.72;;;;;;;7.44;100.00;101495.74;5010136;57;1138813;-70
2023/01/03 06:43:25;;;;;;;16.12;5.67;;;;;;;7.34;100.00;101495.31;4994196;56;1138808;-66
2023/01/03 06:53:56;;;;;;;8.70;2.02;;;;;;;7.11;100.00;101511.37;5090276;56;1140971;-70
2023/01/03 06:59:02;;;;;;;4.60;1.50;;;;;;;7.04;100.00;101523.09;5090374;56;1138842;-70
2023/01/03 07:04:08;;;;;;;4.27;1.30;;;;;;;7.00;100.00;101532.92;5065736;56;1138869;-68
2023/01/03 07:09:15;;;;;;;7.57;2.53;;;;;;;7.01;100.00;101542.98;5086408;56;1138825;-67
2023/01/03 07:14:20;;;;;;;7.13;1.70;;;;;;;6.97;100.00;101548.84;5079738;56;1138863;-66
2023/01/03 07:19:27;;;;;;;4.33;2.10;;;;;;;6.97;100.00;101561.99;5032657;56;1138654;-68
2023/01/03 07:24:32;;;;;;;3.80;1.10;;;;;;;6.92;100.00;101574.95;5017279;56;1136652;-64
2023/01/03 07:29:38;;;;;;;1.83;0.77;;;;;;;6.87;100.00;101576.95;4981652;57;1138897;-69
2023/01/03 07:34:44;;;;;;;8.75;2.12;;;;;;;6.83;100.00;101578.01;5071878;56;1138720;-66
2023/01/03 07:39:49;;;;;;;5.00;1.05;;;;;;;6.77;100.00;101583.06;5097211;56;1136685;-67
2023/01/03 07:44:56;;;;;;;5.05;1.62;;;;;;;6.74;100.00;101587.60;4951046;57;1138775;-67
2023/01/03 07:50:02;;;;;;;8.83;1.60;;;;;;;6.69;100.00;101598.34;4892300;58;1138860;-70
2023/01/03 07:55:08;;;;;;;5.30;1.73;;;;;;;6.62;100.00;101600.38;5022924;55;1136752;-67
2023/01/03 08:00:15;;;;;;;3.42;1.42;;;;;;;6.56;100.00;101604.61;5080388;56;1136943;-66
2023/01/03 08:05:23;;;;;;;7.43;1.70;;;;;;;6.62;100.00;101617.46;5083523;57;1138701;-65
2023/01/03 08:15:56;;;;;;;3.80;1.15;;;;;;;6.83;100.00;101610.88;5032684;56;1138820;-66
2023/01/03 08:21:01;;;;;;;2.33;1.10;;;;;;;6.91;100.00;101621.89;5032329;56;1136680;-64
2023/01/03 08:26:11;;;;;;;1.10;0.87;;;;;;;6.94;100.00;101626.56;4994249;56;1136715;-65
2023/01/03 08:31:25;;;;;;;4.87;1.40;;;;;;;7.01;100.00;101631.09;5145603;56;1138853;-65
2023/01/03 08:36:35;;;;;;;5.22;1.67;;;;;;;7.05;100.00;101639.22;4882483;58;1136857;-66
2023/01/03 08:41:45;;;;;;;5.45;1.35;;;;;;;7.01;100.00;101648.19;4990536;56;1138763;-68
2023/01/03 08:46:54;;;;;;;5.60;1.77;;;;;;;6.99;100.00;101651.34;4942513;57;1138988;-68
2023/01/03 08:52:00;;;;;;;5.60;1.37;;;;;;;6.95;100.00;101657.20;5012402;57;1138903;-69
2023/01/03 08:57:06;;;;;;;8.60;2.27;;;;;;;6.95;100.00;101658.52;5104601;57;1138987;-71
2023/01/03 09:02:11;;;;;;;6.33;1.70;;;;;;;6.99;100.00;101657.92;5140756;56;1138829;-69
2023/01/03 09:07:17;;;;;;;5.60;1.43;;;;;;;6.98;100.00;101673.31;5136864;56;1138723;-69
2023/01/03 09:12:23;;;;;;;2.27;1.27;;;;;;;6.88;100.00;101685.98;4924489;57;1136792;-69
2023/01/03 09:17:30;;;;;;;5.97;1.53;;;;;;;6.83;100.00;101691.07;5086533;57;1138793;-71
2023/01/03 09:22:36;;;;;;;2.70;1.20;;;;;;;6.77;100.00;101697.89;5066717;56;1138876;-72
2023/01/03 09:27:48;;;;;;;3.40;1.00;;;;;;;6.73;100.00;101700.25;5139066;56;1148564;-73
2023/01/03 09:32:54;;;;;;;8.63;1.80;;;;;;;6.65;100.00;101709.34;5081133;56;1138853;-71
2023/01/03 09:38:00;;;;;;;2.15;1.40;;;;;;;6.57;100.00;101708.79;5063350;56;1137119;-71
2023/01/03 09:43:12;;;;;;;5.43;1.63;;;;;;;6.62;100.00;101720.44;5084154;56;1138825;-69
2023/01/03 09:48:22;;;;;;;7.67;1.50;;;;;;;6.64;100.00;101723.86;5174743;55;1136698;-69
2023/01/03 10:04:55;;;;;;;3.42;1.50;;;;;;;6.84;100.00;101725.20;5136954;55;1136986;-70
2023/01/03 10:10:11;;;;;;;1.43;1.23;;;;;;;6.83;100.00;101720.85;5108792;56;1138827;-69
2023/01/03 10:16:03;;;;;;;5.80;1.47;;;;;;;6.84;100.00;101729.59;5045090;56;1136755;-72
2023/01/03 10:21:40;;;;;;;9.97;1.33;;;;;;;6.84;100.00;101730.45;5046001;56;1138996;-72
2023/01/03 10:26:47;;;;;;;4.47;1.50;;;;;;;6.87;100.00;101734.27;5014379;56;1136727;-71
2023/01/03 10:32:00;;;;;;;2.83;0.80;;;;;;;6.94;100.00;101736.16;5069985;56;1138952;-74
2023/01/03 10:37:18;;;;;;;10.53;2.22;;;;;;;6.88;100.00;101728.06;5071844;56;1136911;-74
2023/01/03 10:42:23;;;;;;;3.23;1.00;;;;;;;6.91;100.00;101734.52;5103455;55;1138861;-67
2023/01/03 10:47:29;;;;;;;9.20;2.20;;;;;;;6.94;100.00;101731.76;5234187;56;1136983;-71
2023/01/03 10:52:39;;;;;;;5.83;1.50;;;;;;;6.91;100.00;101726.62;5237595;56;1136637;-73
2023/01/03 10:57:54;;;;;;;3.70;1.40;;;;;;;6.85;100.00;101728.22;5165838;56;1136606;-70
2023/01/03 11:03:22;;;;;;;3.50;1.30;;;;;;;6.81;100.00;101725.78;5165016;56;1136911;-70
2023/01/03 11:08:47;;;;;;;3.63;1.13;;;;;;;6.77;100.00;101724.19;5199741;56;1136995;-69
2023/01/03 11:14:11;;;;;;;5.10;1.50;;;;;;;6.85;100.00;101725.59;5190799;55;1137099;-68
2023/01/03 11:19:18;;;;;;;6.92;1.70;;;;;;;6.92;100.00;101722.22;5222703;55;1136686;-69
2023/01/03 11:24:37;;;;;;;7.43;1.70;;;;;;;7.02;100.00;101730.12;5144140;55;1136568;-70
2023/01/03 11:30:09;;;;;;;4.70;1.80;;;;;;;7.16;100.00;101732.15;5083509;55;1136705;-71
2023/01/03 11:35:36;;;;;;;7.83;1.83;;;;;;;7.24;100.00;101728.70;5110685;55;1136687;-73
2023/01/03 11:41:15;;;;;;;2.30;1.57;;;;;;;7.28;100.00;101723.25;5038004;56;1136711;-69
2023/01/03 11:46:56;;;;;;;4.70;1.00;;;;;;;7.38;100.00;101717.09;5048334;55;1136692;-67
2023/01/03 11:52:18;;;;;;;6.58;1.57;;;;;;;7.80;99.65;101719.52;5121987;55;1136710;-72
2023/01/03 11:57:40;;;;;;;7.63;2.50;;;;;;;8.08;96.58;101719.95;5074311;55;1134787;-73
2023/01/03 12:03:32;;;;;;;9.43;2.93;;;;;;;8.47;96.69;101718.95;5050368;55;1134750;-73
2023/01/03 12:08:44;;;;;;;7.33;1.57;;;;;;;8.92;94.83;101711.81;5125280;55;1134761;-75
2023/01/03 12:14:00;;;;;;;7.43;1.30;;;;;;;9.03;92.16;101709.45;5131450;55;1134692;-71
2023/01/03 12:19:33;;;;;;;7.03;1.40;;;;;;;9.02;90.81;101713.03;5144756;55;1134471;-70
2023/01/03 12:24:49;;;;;;;8.73;1.30;;;;;;;9.23;92.49;101713.70;5182541;55;1136730;-73
2023/01/03 12:30:04;;;;;;;4.27;1.30;;;;;;;9.14;89.49;101723.44;5178146;55;1136752;-68
2023/01/03 12:35:29;;;;;;;5.28;1.40;;;;;;;8.94;88.93;101731.52;5124547;55;1136826;-72
2023/01/03 12:41:08;;;;;;;4.93;1.13;;;;;;;8.68;91.28;101727.58;5079153;56;1134900;-76
2023/01/03 12:46:21;;;;;;;9.53;2.83;;;;;;;9.31;92.41;101716.80;5080125;56;1134640;-70
2023/01/03 12:51:27;;;;;;;8.55;2.98;;;;;;;9.31;92.41;101716.80;5088116;55;1137093;-72
2023/01/03 12:57:01;;;;;;;5.90;2.50;;;;;;;9.79;88.38;101723.83;5061574;55;1136743;-72
2023/01/03 13:02:39;;;;;;;3.08;1.47;;;;;;;9.44;86.87;101721.81;5057574;56;1136599;-74
2023/01/03 13:07:49;;;;;;;2.83;0.93;;;;;;;8.74;89.77;101728.11;5117795;55;1134676;-72
2023/01/03 13:12:56;;;;;;;2.60;1.12;;;;;;;8.18;91.63;101730.89;5120717;55;1134515;-73
2023/01/03 13:18:25;;;;;;;9.13;1.42;;;;;;;7.72;92.05;101733.53;5105924;56;1134903;-69
2023/01/03 13:23:59;;;;;;;4.03;1.40;;;;;;;7.74;92.46;101738.27;5057840;55;1134531;-68
2023/01/03 13:29:43;;;;;;;4.67;1.33;;;;;;;8.27;92.64;101737.02;5111365;55;1135052;-70
2023/01/03 13:35:02;;;;;;;6.33;1.10;;;;;;;8.87;89.59;101746.80;5157128;55;1134595;-67
2023/01/03 13:40:32;;;;;;;5.33;1.35;;;;;;;8.79;88.11;101741.92;5129405;55;1134686;-70
2023/01/03 13:45:43;;;;;;;5.03;1.10;;;;;;;8.31;89.19;101746.49;5153738;55;1134577;-68
2023/01/03 13:51:22;;;;;;;5.90;0.97;;;;;;;7.76;90.80;101749.13;5124527;55;1134507;-69
2023/01/03 13:56:34;;;;;;;4.47;1.10;;;;;;;7.44;92.34;101756.31;5154317;56;1134532;-71
2023/01/03 14:02:11;;;;;;;3.60;1.10;;;;;;;7.21;93.30;101753.83;5156961;55;1134771;-68
2023/01/03 14:07:41;;;;;;;3.33;1.17;;;;;;;7.04;94.53;101749.30;5114687;55;1134633;-69
2023/01/03 14:13:09;;;;;;;5.07;1.40;;;;;;;6.90;94.85;101745.95;5067939;56;1134818;-73
2023/01/03 14:18:27;;;;;;;4.42;2.33;;;;;;;6.80;95.34;101751.22;5145329;55;1134783;-75
2023/01/03 14:23:33;;;;;;;5.77;1.40;;;;;;;6.71;95.33;101763.45;5154204;55;1134733;-68
2023/01/03 14:28:40;;;;;;;2.60;1.40;;;;;;;6.61;95.21;101778.72;5142573;55;1134573;-76
2023/01/03 14:33:50;;;;;;;3.27;1.40;;;;;;;6.55;95.67;101784.25;5135976;55;1134665;-69
2023/01/03 14:39:01;;;;;;;4.65;1.45;;;;;;;6.44;95.81;101789.06;5108497;55;1134815;-71
2023/01/03 14:44:11;;;;;;;6.47;1.65;;;;;;;6.33;96.02;101800.02;5086047;55;1134676;-67
2023/01/03 14:49:24;;;;;;;2.47;1.33;;;;;;;6.21;96.41;101803.13;5061440;56;1134573;-71
2023/01/03 14:54:31;;;;;;;7.10;1.62;;;;;;;6.19;96.80;101801.02;5046526;56;1134583;-65
2023/01/03 14:59:37;;;;;;;8.03;2.43;;;;;;;6.16;97.20;101810.77;5149084;55;1134709;-72
2023/01/03 15:04:46;;;;;;;7.57;1.70;;;;;;;6.06;97.77;101814.22;5130978;55;1134593;-70
2023/01/03 15:10:05;;;;;;;5.03;1.70;;;;;;;5.96;98.47;101821.57;5120684;55;1134580;-73
2023/01/03 15:15:29;;;;;;;10.10;2.23;;;;;;;5.90;99.55;101836.27;5096057;55;1134974;-71
2023/01/03 15:20:41;;;;;;;13.03;2.77;;;;;;;5.79;100.00;101825.28;5143262;55;1136989;-71
2023/01/03 15:25:48;;;;;;;5.75;2.42;;;;;;;5.65;100.00;101824.93;5100475;55;1138877;-76
2023/01/03 15:31:00;;;;;;;6.40;2.30;;;;;;;5.59;100.00;101824.69;5037772;56;1136846;-70
2023/01/03 15:36:13;;;;;;;6.12;2.37;;;;;;;5.54;100.00;101838.41;5111391;55;1137542;-69
2023/01/03 15:47:02;;;;;;;6.87;2.23;;;;;;;5.40;100.00;101837.19;4886260;58;1138894;-68
2023/01/03 15:52:11;;;;;;;5.90;2.63;;;;;;;5.29;100.00;101837.13;4961375;57;1137077;-72
2023/01/03 15:57:26;;;;;;;7.70;2.43;;;;;;;5.21;100.00;101845.69;4939029;57;1136858;-67
2023/01/03 16:02:32;;;;;;;7.93;2.50;;;;;;;5.17;100.00;101849.35;4951999;57;1150799;-67
2023/01/03 16:07:39;;;;;;;8.53;3.23;;;;;;;5.08;100.00;101857.95;5037984;56;1136860;-74
2023/01/03 16:12:44;;;;;;;22.83;7.80;;;;;;;5.06;100.00;101863.70;5044863;56;1136719;-69
2023/01/03 16:17:52;;;;;;;15.13;3.50;;;;;;;5.03;100.00;101866.00;5013295;57;1139307;-71
2023/01/03 16:22:58;;;;;;;7.60;3.33;;;;;;;5.00;100.00;101863.47;5006748;56;1138813;-73
2023/01/03 16:28:03;;;;;;;6.75;2.95;;;;;;;4.94;100.00;101867.59;5134010;55;1136954;-73
2023/01/03 16:33:16;;;;;;;12.90;3.37;;;;;;;4.88;100.00;101866.05;5123416;55;1136839;-73
2023/01/03 16:38:24;;;;;;;;;;;;;;;4.82;100.00;101865.38;5122881;55;1139059;-69
2023/01/03 16:43:30;;;;;;;8.73;3.87;;;;;;;4.80;100.00;101878.98;5172912;55;974117;-68
2023/01/03 16:48:38;;;;;;;9.93;3.93;;;;;;;4.75;100.00;101882.19;5184739;55;1135025;-73
2023/01/03 16:53:47;;;;;;;11.30;3.90;;;;;;;4.67;100.00;101896.00;5133548;55;1136690;-70
2023/01/03 16:58:54;;;;;;;13.43;4.00;;;;;;;4.60;100.00;101904.05;5098194;56;1138828;-76
2023/01/03 17:03:59;;;;;;;11.95;4.60;;;;;;;4.54;100.00;101891.60;5123467;55;1138709;-73
2023/01/03 17:09:16;;;;;;;14.53;5.87;;;;;;;4.47;100.00;101888.30;5099259;56;1138673;-71
2023/01/03 17:14:23;;;;;;;12.33;5.03;;;;;;;4.45;100.00;101893.17;5086210;56;1138867;-71
2023/01/03 17:19:29;;;;;;;14.50;4.80;;;;;;;4.45;100.00;101904.51;5135396;56;1139142;-67
2023/01/03 17:24:35;;;;;;;38.07;17.27;;;;;;;4.53;100.00;101908.22;5105635;56;1138938;-71
2023/01/03 17:29:41;;;;;;;34.07;13.03;;;;;;;4.64;100.00;101907.89;5059702;56;1146422;-70
2023/01/03 17:34:47;;;;;;;32.00;10.90;;;;;;;4.70;100.00;101909.02;5164585;55;1141017;-70
2023/01/03 17:39:59;;;;;;;30.77;10.07;;;;;;;4.72;100.00;101901.97;5173333;55;1140971;-71
2023/01/03 17:50:33;;;;;;;72.40;26.53;;;;;;;4.57;100.00;101921.19;5156935;55;1141022;-71
2023/01/03 17:55:39;;;;;;;34.17;11.17;;;;;;;4.32;100.00;101928.05;5116416;56;1140856;-68
2023/01/03 18:00:45;;;;;;;38.20;15.13;;;;;;;4.20;100.00;101934.50;5087482;56;1142895;-73
2023/01/03 18:05:51;;;;;;;76.47;30.37;;;;;;;4.20;100.00;101927.95;5093850;55;1141041;-71
2023/01/03 18:10:57;;;;;;;20.43;8.77;;;;;;;4.31;100.00;101934.63;5101652;56;1141232;-71
2023/01/03 18:16:03;;;;;;;31.33;12.93;;;;;;;4.23;100.00;101930.94;5119676;56;1139174;-76
2023/01/03 18:21:22;;;;;;;58.43;26.73;;;;;;;4.20;100.00;101932.33;5087678;56;1140925;-68
2023/01/03 18:26:38;;;;;;;152.47;64.42;;;;;;;4.17;100.00;101930.66;5129606;55;1141180;-69
2023/01/03 18:31:45;;;;;;;131.57;53.93;;;;;;;4.08;100.00;101937.47;5164639;55;1142898;-68
2023/01/03 18:36:53;;;;;;;96.83;38.07;;;;;;;3.99;100.00;101939.02;5012665;56;1142908;-69
2023/01/03 18:43:06;;;;;;;117.00;52.10;;;;;;;4.03;100.00;101941.97;4995724;57;1141547;-70
2023/01/03 18:47:10;;;;;;;339.23;141.10;;;;;;;4.03;100.00;101938.49;5110103;55;1142834;-66
2023/01/03 18:52:37;;;;;;;227.62;96.08;;;;;;;4.04;100.00;101946.75;5088701;55;1144885;-69
2023/01/03 18:57:44;;;;;;;180.30;79.03;;;;;;;3.99;100.00;101945.56;5050394;56;1142974;-69
2023/01/03 19:02:52;;;;;;;148.57;72.45;;;;;;;3.90;100.00;101956.30;5018955;56;1142886;-71
2023/01/03 19:07:59;;;;;;;171.83;73.60;;;;;;;3.81;100.00;101956.11;5080362;56;1223602;-71
2023/01/03 19:13:06;;;;;;;170.38;74.67;;;;;;;3.73;100.00;101963.73;5082936;55;1143017;-73
2023/01/03 19:18:12;;;;;;;142.37;65.55;;;;;;;3.67;100.00;101952.97;5106175;55;1143058;-68
2023/01/03 19:23:25;;;;;;;111.47;49.33;;;;;;;3.67;100.00;101956.89;5103972;55;1143045;-67
2023/01/03 19:28:31;;;;;;;117.57;54.93;;;;;;;3.68;100.00;101957.75;5025546;56;1143006;-69
2023/01/03 19:33:37;;;;;;;111.90;50.45;;;;;;;3.65;100.00;101958.72;5066629;55;1143931;-72
2023/01/03 19:38:43;;;;;;;114.63;51.43;;;;;;;3.55;100.00;101965.06;5130928;55;1142904;-72
2023/01/03 19:43:50;;;;;;;115.00;48.13;;;;;;;3.44;100.00;101964.48;5083593;55;1143463;-68
2023/01/03 19:48:56;;;;;;;103.97;49.20;;;;;;;3.33;100.00;101973.05;5084065;56;1143077;-71
2023/01/03 19:54:01;;;;;;;99.73;41.83;;;;;;;3.30;100.00;101965.27;5101598;56;1143146;-69
2023/01/03 19:59:15;;;;;;;99.30;41.00;;;;;;;3.32;100.00;101964.79;5070965;56;1140829;-73
2023/01/03 20:04:21;;;;;;;75.80;32.23;;;;;;;3.34;100.00;101964.31;5071148;56;1140966;-71
2023/01/03 20:09:26;;;;;;;65.63;25.90;;;;;;;3.33;100.00;101954.74;5077333;56;1141105;-69
2023/01/03 20:14:32;;;;;;;78.62;32.75;;;;;;;3.16;100.00;101965.61;5099282;56;1140971;-72
2023/01/03 20:19:39;;;;;;;170.77;61.50;;;;;;;3.08;100.00;101959.23;5009556;56;1140768;-72
2023/01/03 20:24:46;;;;;;;132.70;50.25;;;;;;;3.05;100.00;101960.64;4910913;58;1143623;-72
2023/01/03 20:29:53;;;;;;;111.67;41.47;;;;;;;3.08;100.00;101970.14;4978199;56;1143139;-74
2023/01/03 20:35:00;;;;;;;95.43;38.43;;;;;;;3.08;100.00;101960.99;4999810;56;1143185;-66
2023/01/03 20:40:08;;;;;;;169.93;61.90;;;;;;;3.03;100.00;101965.05;5052734;56;1141062;-71
2023/01/03 20:45:16;;;;;;;126.90;48.48;;;;;;;2.91;100.00;101968.36;5078229;56;1143095;-69
2023/01/03 20:50:27;;;;;;;109.55;44.27;;;;;;;2.87;100.00;101971.96;5078400;56;1143057;-69
2023/01/03 20:55:33;;;;;;;105.90;43.97;;;;;;;2.76;100.00;101978.70;5079723;56;1143008;-67
2023/01/03 21:00:39;;;;;;;90.60;39.23;;;;;;;2.68;100.00;101976.28;5081222;56;1142980;-67
2023/01/03 21:05:45;;;;;;;76.53;35.23;;;;;;;2.64;100.00;101976.37;5043550;56;1140984;-69
2023/01/03 21:10:54;;;;;;;119.73;46.33;;;;;;;2.55;100.00;101970.05;5016623;57;1150649;-75
2023/01/03 21:16:00;;;;;;;102.87;44.87;;;;;;;2.51;100.00;101968.39;4981451;56;1143199;-72
2023/01/03 21:21:07;;;;;;;114.73;48.27;;;;;;;2.49;100.00;101964.50;4961812;57;1142997;-65
2023/01/03 21:26:13;;;;;;;171.03;71.43;;;;;;;2.36;100.00;101967.81;4962158;57;1142839;-70
2023/01/03 21:31:22;;;;;;;97.80;42.43;;;;;;;2.25;100.00;101968.93;4981699;57;1142848;-65
2023/01/03 21:36:34;;;;;;;109.37;42.85;;;;;;;2.23;100.00;101978.54;4962345;58;1140850;-72
2023/01/03 21:46:48;;;;;;;80.53;33.77;;;;;;;2.24;100.00;101972.43;4950157;56;1143394;-72
2023/01/03 21:51:54;;;;;;;80.97;36.70;;;;;;;2.15;100.00;101966.93;5105489;56;1140851;-69
2023/01/03 21:57:00;;;;;;;90.47;39.17;;;;;;;2.13;100.00;101975.70;5050207;56;1140894;-75
2023/01/03 22:07:30;;;;;;;74.00;35.50;;;;;;;2.07;100.00;101976.23;5064385;56;1140752;-73
2023/01/03 22:12:36;;;;;;;84.87;37.97;;;;;;;2.00;100.00;101977.22;5044064;57;1140948;-69
2023/01/03 22:17:42;;;;;;;77.00;34.17;;;;;;;1.94;100.00;101986.48;5044038;56;1140820;-72
2023/01/03 22:22:49;;;;;;;76.22;34.50;;;;;;;1.95;100.00;101984.30;5051124;56;1140910;-71
2023/01/03 22:27:56;;;;;;;71.40;31.97;;;;;;;1.93;100.00;101983.46;5056103;56;1140764;-72
2023/01/03 22:33:02;;;;;;;80.95;31.15;;;;;;;1.91;100.00;101983.06;5024691;56;1140758;-74
2023/01/03 22:38:08;;;;;;;104.70;37.30;;;;;;;1.72;100.00;101979.92;5045130;56;1140804;-67
2023/01/03 22:43:14;;;;;;;69.50;27.57;;;;;;;1.67;100.00;101977.86;5041964;56;1143007;-72
2023/01/03 22:48:20;;;;;;;65.40;30.13;;;;;;;1.63;100.00;101984.88;5014749;57;1140903;-68
2023/01/03 22:53:26;;;;;;;62.47;29.80;;;;;;;1.57;100.00;101978.44;5014987;56;1141386;-71
2023/01/03 22:58:35;;;;;;;60.53;27.67;;;;;;;1.51;100.00;101977.27;5034367;56;1140799;-71
2023/01/03 23:03:41;;;;;;;68.78;29.15;;;;;;;1.45;100.00;101985.17;5068317;55;1140877;-70
2023/01/03 23:08:51;;;;;;;78.40;33.27;;;;;;;1.37;100.00;101980.10;5098075;56;1140863;-71
2023/01/03 23:13:58;;;;;;;73.33;30.88;;;;;;;1.29;100.00;101966.31;5098807;55;1140821;-70
2023/01/03 23:19:09;;;;;;;84.33;33.40;;;;;;;1.31;100.00;101952.82;5119343;55;1140870;-68
2023/01/03 23:24:21;;;;;;;92.30;33.30;;;;;;;1.30;100.00;101943.28;5099504;56;1140775;-71
2023/01/03 23:29:26;;;;;;;88.97;34.07;;;;;;;1.28;100.00;101947.66;5099623;56;1141014;-67
2023/01/03 23:34:32;;;;;;;98.70;39.20;;;;;;;1.24;100.00;101947.72;5066901;56;1140943;-69
2023/01/03 23:39:38;;;;;;;112.77;42.73;;;;;;;1.15;100.00;101944.83;5035443;56;1140816;-69
2023/01/03 23:44:44;;;;;;;88.73;36.00;;;;;;;1.01;100.00;101944.19;5099238;55;1142938;-68
2023/01/03 23:49:50;;;;;;;79.63;31.27;;;;;;;0.88;100.00;101942.22;5099617;56;1140825;-72
2023/01/03 23:54:55;;;;;;;82.93;33.00;;;;;;;0.84;100.00;101935.33;5119307;55;1140994;-68
